createdAt,value
2023-03-26T00:00:34.793Z,1457
2023-03-26T00:05:53.199Z,1366
2023-03-26T00:11:12.268Z,1220
2023-03-26T00:16:30.878Z,1158
2023-03-26T00:21:49.665Z,1189
2023-03-26T00:27:08.161Z,1252
2023-03-26T00:32:26.468Z,1287
2023-03-26T00:37:44.625Z,1300
2023-03-26T00:43:02.919Z,1304
2023-03-26T00:48:21.715Z,1305
2023-03-26T00:54:02.430Z,1296
2023-03-26T00:59:20.791Z,1283
2023-03-26T01:04:39.389Z,1274
2023-03-26T01:09:57.831Z,1289
2023-03-26T01:15:16.448Z,1315
2023-03-26T01:20:34.577Z,1356
2023-03-26T01:25:53.065Z,1390
2023-03-26T01:31:11.673Z,1408
2023-03-26T01:36:30.167Z,1409
2023-03-26T01:41:48.281Z,1422
2023-03-26T01:47:06.270Z,1445
2023-03-26T01:52:24.532Z,1454
2023-03-26T01:57:42.831Z,1470
2023-03-26T02:03:01.004Z,1480
2023-03-26T02:08:19.372Z,1483
2023-03-26T02:13:37.640Z,1483
2023-03-26T02:18:55.941Z,1484
2023-03-26T02:24:14.218Z,1485
2023-03-26T02:29:32.716Z,1502
2023-03-26T02:34:51.302Z,1511
2023-03-26T02:40:09.630Z,1519
2023-03-26T02:45:27.955Z,1522
2023-03-26T02:50:46.146Z,1516
2023-03-26T02:56:04.656Z,1521
2023-03-26T03:01:23.011Z,1520
2023-03-26T03:06:41.151Z,1505
2023-03-26T03:11:59.451Z,1480
2023-03-26T03:17:17.795Z,1477
2023-03-26T03:22:36.096Z,1486
2023-03-26T03:27:54.357Z,1483
2023-03-26T03:33:13.057Z,1492
2023-03-26T03:38:31.396Z,1502
2023-03-26T03:43:49.861Z,1503
2023-03-26T03:49:07.938Z,1500
2023-03-26T03:54:26.444Z,1482
2023-03-26T03:59:47.426Z,1471
2023-03-26T04:05:06.598Z,1456
2023-03-26T04:10:24.911Z,1457
2023-03-26T04:15:43.061Z,1463
2023-03-26T04:21:01.164Z,1475
2023-03-26T04:26:19.470Z,1474
2023-03-26T04:31:37.756Z,1463
2023-03-26T04:36:56.364Z,1452
2023-03-26T04:42:14.478Z,1476
2023-03-26T04:47:32.585Z,1482
2023-03-26T04:52:50.880Z,1474
2023-03-26T04:58:08.917Z,1482
2023-03-26T05:03:28.057Z,1494
2023-03-26T05:08:45.969Z,1494
2023-03-26T05:14:04.464Z,1477
2023-03-26T05:19:22.947Z,1459
2023-03-26T05:24:41.008Z,1445
2023-03-26T05:29:59.565Z,1429
2023-03-26T05:35:17.918Z,1422
2023-03-26T05:40:36.149Z,1398
2023-03-26T05:45:54.909Z,1379
2023-03-26T05:51:13.321Z,1357
2023-03-26T05:56:31.803Z,1362
2023-03-26T06:01:49.772Z,1360
2023-03-26T06:07:08.344Z,1361
2023-03-26T06:12:26.653Z,1355
2023-03-26T06:17:45.194Z,1337
2023-03-26T06:23:03.768Z,1328
2023-03-26T06:28:22.068Z,1301
2023-03-26T06:33:40.238Z,1291
2023-03-26T06:38:58.697Z,1264
2023-03-26T06:44:17.635Z,1242
2023-03-26T06:49:35.942Z,1242
2023-03-26T06:54:53.913Z,1251
2023-03-26T07:00:12.405Z,1097
2023-03-26T07:05:30.736Z,867
2023-03-26T07:10:49.028Z,724
2023-03-26T07:16:07.395Z,657
2023-03-26T07:21:25.474Z,612
2023-03-26T07:26:43.798Z,589
2023-03-26T07:32:02.178Z,879
2023-03-26T07:37:21.424Z,809
2023-03-26T07:42:39.670Z,618
2023-03-26T07:47:57.912Z,548
2023-03-26T07:53:15.943Z,480
2023-03-26T07:58:34.053Z,436
2023-03-26T08:03:52.405Z,428
2023-03-26T08:09:10.553Z,437
2023-03-26T08:14:28.846Z,447
2023-03-26T08:19:46.748Z,484
2023-03-26T08:25:04.842Z,501
2023-03-26T08:30:23.178Z,527
2023-03-26T08:35:41.679Z,578
2023-03-26T08:41:00.616Z,602
2023-03-26T08:46:18.956Z,615
2023-03-26T08:51:37.391Z,636
2023-03-26T08:56:55.693Z,655
2023-03-26T09:02:13.728Z,674
2023-03-26T09:07:32.106Z,692
2023-03-26T09:12:50.608Z,713
2023-03-26T09:18:09.617Z,727
2023-03-26T09:23:28.917Z,743
2023-03-26T09:28:48.166Z,763
2023-03-26T09:34:06.473Z,783
2023-03-26T09:39:24.730Z,801
2023-03-26T09:44:42.854Z,820
2023-03-26T09:50:00.733Z,829
2023-03-26T09:55:19.059Z,834
2023-03-26T10:00:37.595Z,837
2023-03-26T10:05:57.013Z,840
2023-03-26T10:11:15.149Z,835
2023-03-26T10:16:33.549Z,853
2023-03-26T10:21:52.277Z,862
2023-03-26T10:27:11.021Z,856
2023-03-26T10:32:29.815Z,849
2023-03-26T10:37:48.043Z,794
2023-03-26T10:43:06.482Z,747
2023-03-26T10:48:30.615Z,722
2023-03-26T10:53:48.928Z,719
2023-03-26T10:59:08.261Z,735
2023-03-26T11:04:26.580Z,765
2023-03-26T11:09:44.919Z,743
2023-03-26T11:15:03.000Z,728
2023-03-26T11:20:21.411Z,705
2023-03-26T11:25:39.774Z,676
2023-03-26T11:31:00.862Z,700
2023-03-26T11:36:18.862Z,743
2023-03-26T11:41:37.382Z,777
2023-03-26T11:46:55.962Z,843
2023-03-26T11:52:15.679Z,883
2023-03-26T11:57:34.045Z,926
2023-03-26T12:02:56.587Z,918
2023-03-26T12:08:15.214Z,887
2023-03-26T12:13:36.319Z,880
2023-03-26T12:18:57.377Z,878
2023-03-26T12:24:15.846Z,872
2023-03-26T12:29:34.623Z,878
2023-03-26T12:34:53.969Z,881
2023-03-26T12:40:16.133Z,885
2023-03-26T12:45:40.393Z,898
2023-03-26T12:50:58.987Z,903
2023-03-26T12:56:21.297Z,913
2023-03-26T13:01:40.652Z,922
2023-03-26T13:07:00.772Z,913
2023-03-26T13:12:20.981Z,911
2023-03-26T13:17:39.516Z,906
2023-03-26T13:22:57.792Z,895
2023-03-26T13:28:16.504Z,883
2023-03-26T13:33:35.108Z,876
2023-03-26T13:38:58.702Z,868
2023-03-26T13:44:19.100Z,874
2023-03-26T13:49:37.684Z,881
2023-03-26T13:54:55.981Z,907
2023-03-26T14:00:14.290Z,935
2023-03-26T14:05:32.611Z,922
2023-03-26T14:10:50.763Z,906
2023-03-26T14:16:09.075Z,906
2023-03-26T14:21:27.908Z,908
2023-03-26T14:26:46.187Z,913
2023-03-26T14:32:04.483Z,1026
2023-03-26T14:37:27.508Z,1007
2023-03-26T14:42:46.577Z,991
2023-03-26T14:48:06.146Z,1005
2023-03-26T14:53:28.118Z,1007
2023-03-26T14:58:46.378Z,1085
2023-03-26T15:11:07.980Z,1331
2023-03-26T15:16:10.732Z,1140
2023-03-26T15:21:29.180Z,1036
2023-03-26T15:26:47.281Z,1047
2023-03-26T15:32:05.703Z,1096
2023-03-26T15:37:24.105Z,1081
2023-03-26T15:42:42.241Z,1064
2023-03-26T15:48:00.420Z,1054
2023-03-26T15:53:18.891Z,1040
2023-03-26T15:58:37.362Z,1039
2023-03-26T16:03:55.752Z,1038
2023-03-26T16:09:14.280Z,1043
2023-03-26T16:14:35.580Z,1059
2023-03-26T16:19:54.032Z,1064
2023-03-26T16:25:26.965Z,1070
2023-03-26T16:30:47.709Z,1031
2023-03-26T16:36:05.727Z,988
2023-03-26T16:41:09.608Z,913
2023-03-26T16:46:27.545Z,848
2023-03-26T16:51:46.023Z,782
2023-03-26T16:57:04.766Z,763
2023-03-26T17:02:23.061Z,743
2023-03-26T17:07:41.261Z,755
2023-03-26T17:12:59.925Z,764
2023-03-26T17:18:18.168Z,771
2023-03-26T17:23:38.423Z,773
2023-03-26T17:28:58.095Z,762
2023-03-26T17:34:16.437Z,702
2023-03-26T17:39:34.828Z,638
2023-03-26T17:44:53.105Z,669
2023-03-26T17:50:11.396Z,681
2023-03-26T17:55:29.965Z,692
2023-03-26T18:00:48.263Z,699
2023-03-26T18:06:06.868Z,702
2023-03-26T18:11:24.930Z,705
2023-03-26T18:16:43.241Z,697
2023-03-26T18:22:01.271Z,701
2023-03-26T18:27:19.153Z,701
2023-03-26T18:32:37.453Z,710
2023-03-26T18:37:55.687Z,711
2023-03-26T18:43:19.561Z,714
2023-03-26T18:49:01.609Z,718
2023-03-26T18:54:19.769Z,723
2023-03-26T18:59:38.046Z,726
2023-03-26T19:04:59.519Z,734
2023-03-26T19:10:18.718Z,743
2023-03-26T19:15:37.183Z,748
2023-03-26T19:20:55.568Z,760
2023-03-26T19:26:14.401Z,762
2023-03-26T19:31:32.928Z,770
2023-03-26T19:36:52.562Z,776
2023-03-26T19:42:10.988Z,785
2023-03-26T19:47:39.285Z,797
2023-03-26T19:56:36.603Z,827
2023-03-26T20:01:54.975Z,866
2023-03-26T20:07:13.500Z,937
2023-03-26T20:12:31.586Z,1001
2023-03-26T20:17:50.162Z,1062
2023-03-26T20:23:08.209Z,1093
2023-03-26T20:28:26.704Z,1120
2023-03-26T20:33:44.631Z,1140
2023-03-26T20:39:03.340Z,1177
2023-03-26T20:44:21.592Z,1197
2023-03-26T20:49:39.952Z,1221
2023-03-26T20:54:58.328Z,1242
2023-03-26T21:00:16.378Z,1252
2023-03-26T21:05:34.706Z,1263
2023-03-26T21:10:53.050Z,1270
2023-03-26T21:16:11.231Z,1280
2023-03-26T21:21:29.549Z,1281
2023-03-26T21:26:48.044Z,1291
2023-03-26T21:32:06.124Z,1299
2023-03-26T21:37:24.125Z,1299
2023-03-26T21:42:42.218Z,1302
2023-03-26T21:48:00.556Z,1311
2023-03-26T21:53:19.029Z,1312
2023-03-26T21:58:37.123Z,1317
2023-03-26T22:03:55.242Z,1324
2023-03-26T22:09:15.062Z,1325
2023-03-26T22:14:53.207Z,1344
2023-03-26T22:20:11.733Z,1362
2023-03-26T22:25:29.869Z,1369
2023-03-26T22:30:48.343Z,1374
2023-03-26T22:36:06.709Z,1379
2023-03-26T22:41:41.507Z,1383
2023-03-26T22:46:59.667Z,1390
2023-03-26T22:52:18.043Z,1395
2023-03-26T22:57:36.403Z,1398
2023-03-26T23:02:54.971Z,1398
2023-03-26T23:08:13.176Z,1390
2023-03-26T23:13:31.715Z,1397
2023-03-26T23:18:50.213Z,1388
2023-03-26T23:24:08.587Z,1395
2023-03-26T23:29:26.925Z,1394
2023-03-26T23:34:51.683Z,1405
2023-03-26T23:40:11.118Z,1469
2023-03-26T23:45:29.288Z,1490
2023-03-26T23:50:47.440Z,1511
2023-03-26T23:56:05.531Z,1534
